createdAt,value
2018-07-20T00:03:49.164Z,17.10
2018-07-20T00:06:16.793Z,17.10
2018-07-20T00:08:44.409Z,17.00
2018-07-20T00:11:12.096Z,17.00
2018-07-20T00:13:39.713Z,17.00
2018-07-20T00:18:34.841Z,17.00
2018-07-20T00:21:02.954Z,17.00
2018-07-20T00:23:30.565Z,16.90
2018-07-20T00:25:59.253Z,16.90
2018-07-20T00:28:26.885Z,16.90
2018-07-20T00:30:54.505Z,16.80
2018-07-20T00:33:22.147Z,16.80
2018-07-20T00:35:49.769Z,16.80
2018-07-20T00:38:17.372Z,16.70
2018-07-20T00:40:45.021Z,16.60
2018-07-20T00:43:12.661Z,16.60
2018-07-20T00:48:07.865Z,16.60
2018-07-20T00:50:35.493Z,16.60
2018-07-20T00:53:03.197Z,16.50
2018-07-20T00:55:30.861Z,16.50
2018-07-20T00:57:58.509Z,16.50
2018-07-20T01:00:26.776Z,16.50
2018-07-20T01:02:54.561Z,16.40
2018-07-20T01:05:23.171Z,16.40
2018-07-20T01:07:50.790Z,16.40
2018-07-20T01:10:18.427Z,16.40
2018-07-20T01:12:46.733Z,16.40
2018-07-20T01:15:14.350Z,16.40
2018-07-20T01:17:41.986Z,16.40
2018-07-20T01:20:10.717Z,16.40
2018-07-20T01:22:38.349Z,16.40
2018-07-20T01:25:06.521Z,16.40
2018-07-20T01:27:34.148Z,16.40
2018-07-20T01:30:01.817Z,16.40
2018-07-20T01:32:29.473Z,15.70
2018-07-20T01:34:58.110Z,16.30
2018-07-20T01:37:25.729Z,16.30
2018-07-20T01:42:20.917Z,16.20
2018-07-20T01:44:48.517Z,16.30
2018-07-20T01:49:43.900Z,16.20
2018-07-20T01:52:12.585Z,16.20
2018-07-20T01:54:40.224Z,16.20
2018-07-20T01:57:07.846Z,16.20
2018-07-20T02:02:03.601Z,16.20
2018-07-20T02:04:32.226Z,16.20
2018-07-20T02:06:59.865Z,16.20
2018-07-20T02:09:27.484Z,16.20
2018-07-20T02:11:55.141Z,16.10
2018-07-20T02:14:23.786Z,16.20
2018-07-20T02:16:52.441Z,16.20
2018-07-20T02:19:20.045Z,16.20
2018-07-20T02:21:47.666Z,16.00
2018-07-20T02:24:15.264Z,16.00
2018-07-20T02:26:42.937Z,16.00
2018-07-20T02:29:10.558Z,15.90
2018-07-20T02:31:39.305Z,15.80
2018-07-20T02:34:07.257Z,15.90
2018-07-20T02:36:34.908Z,15.80
2018-07-20T02:39:02.865Z,15.80
2018-07-20T02:41:30.476Z,15.80
2018-07-20T02:46:26.641Z,15.80
2018-07-20T02:48:54.273Z,15.80
2018-07-20T02:51:21.878Z,15.80
2018-07-20T02:53:49.504Z,15.80
2018-07-20T02:58:44.661Z,15.70
2018-07-20T03:01:12.309Z,15.70
2018-07-20T03:03:40.626Z,15.70
2018-07-20T03:06:08.577Z,15.70
2018-07-20T03:08:36.217Z,15.70
2018-07-20T03:11:04.321Z,15.70
2018-07-20T03:13:32.065Z,15.70
2018-07-20T03:15:59.785Z,15.70
2018-07-20T03:18:28.441Z,15.70
2018-07-20T03:20:56.105Z,15.60
2018-07-20T03:23:23.726Z,15.70
2018-07-20T03:28:18.888Z,15.60
2018-07-20T03:30:46.558Z,15.70
2018-07-20T03:33:14.171Z,15.70
2018-07-20T03:35:41.857Z,15.60
2018-07-20T03:38:09.489Z,15.60
2018-07-20T03:40:37.154Z,15.60
2018-07-20T03:43:04.788Z,15.70
2018-07-20T03:45:32.444Z,15.70
2018-07-20T03:48:00.057Z,15.70
2018-07-20T03:50:27.657Z,15.70
2018-07-20T03:52:55.272Z,15.80
2018-07-20T03:55:22.888Z,15.90
2018-07-20T03:57:50.529Z,15.80
2018-07-20T04:00:18.153Z,15.90
2018-07-20T04:02:45.821Z,15.90
2018-07-20T04:05:13.616Z,16.10
2018-07-20T04:07:41.237Z,16.00
2018-07-20T04:10:08.867Z,16.10
2018-07-20T04:12:36.479Z,16.10
2018-07-20T04:15:05.068Z,16.10
2018-07-20T04:17:37.269Z,16.20
2018-07-20T04:20:05.228Z,16.20
2018-07-20T04:22:32.874Z,16.30
2018-07-20T04:25:00.508Z,16.30
2018-07-20T04:27:28.109Z,16.40
2018-07-20T04:29:55.769Z,16.50
2018-07-20T04:32:23.456Z,16.50
2018-07-20T04:34:51.744Z,16.60
2018-07-20T04:37:19.573Z,16.70
2018-07-20T04:39:48.252Z,16.80
2018-07-20T04:42:15.868Z,17.00
2018-07-20T04:44:43.469Z,17.10
2018-07-20T04:47:11.133Z,17.30
2018-07-20T04:49:38.765Z,17.50
2018-07-20T04:54:40.709Z,17.60
2018-07-20T04:57:08.346Z,17.70
2018-07-20T04:59:35.974Z,17.70
2018-07-20T05:02:03.656Z,17.70
2018-07-20T05:04:31.285Z,17.80
2018-07-20T05:06:58.911Z,17.80
2018-07-20T05:09:26.526Z,17.90
2018-07-20T05:11:55.091Z,17.80
2018-07-20T05:14:22.741Z,17.90
2018-07-20T05:16:50.394Z,17.90
2018-07-20T05:19:18.042Z,18.00
2018-07-20T05:21:46.401Z,18.10
2018-07-20T05:24:14.055Z,18.20
2018-07-20T05:26:41.701Z,18.20
2018-07-20T05:29:09.300Z,18.40
2018-07-20T05:31:36.922Z,18.50
2018-07-20T05:34:04.629Z,18.70
2018-07-20T05:36:32.257Z,18.80
2018-07-20T05:38:59.858Z,18.90
2018-07-20T05:41:27.552Z,19.10
2018-07-20T05:43:55.726Z,19.30
2018-07-20T05:46:24.023Z,19.30
2018-07-20T05:48:51.625Z,19.50
2018-07-20T05:51:19.341Z,19.60
2018-07-20T05:53:46.933Z,19.70
2018-07-20T05:56:14.541Z,19.90
2018-07-20T05:58:42.169Z,20.00
2018-07-20T06:01:09.825Z,20.10
2018-07-20T06:03:37.442Z,20.20
2018-07-20T06:06:05.498Z,20.40
2018-07-20T06:08:33.101Z,20.50
2018-07-20T06:11:00.730Z,20.80
2018-07-20T06:13:28.333Z,20.90
2018-07-20T06:15:55.941Z,21.00
2018-07-20T06:18:23.591Z,21.10
2018-07-20T06:20:51.197Z,21.20
2018-07-20T06:23:18.785Z,21.30
2018-07-20T06:25:46.537Z,21.30
2018-07-20T06:28:14.181Z,21.30
2018-07-20T06:30:41.793Z,21.50
2018-07-20T06:33:09.421Z,21.50
2018-07-20T06:35:37.054Z,21.60
2018-07-20T06:38:05.245Z,21.90
2018-07-20T06:40:32.864Z,22.00
2018-07-20T06:43:00.475Z,22.20
2018-07-20T06:45:28.102Z,22.10
2018-07-20T06:47:55.717Z,22.40
2018-07-20T06:50:23.308Z,22.50
2018-07-20T06:52:50.941Z,22.60
2018-07-20T06:55:18.557Z,22.80
2018-07-20T06:57:46.160Z,23.00
2018-07-20T07:00:13.792Z,23.30
2018-07-20T07:02:41.389Z,23.50
2018-07-20T07:05:10.073Z,23.80
2018-07-20T07:07:37.821Z,23.70
2018-07-20T07:10:05.933Z,23.80
2018-07-20T07:12:33.580Z,24.10
2018-07-20T07:15:01.258Z,23.90
2018-07-20T07:17:28.812Z,23.90
2018-07-20T07:19:56.402Z,23.90
2018-07-20T07:22:24.021Z,23.90
2018-07-20T07:24:52.234Z,24.00
2018-07-20T07:27:20.929Z,24.30
2018-07-20T07:29:48.541Z,24.60
2018-07-20T07:32:16.837Z,24.90
2018-07-20T07:34:45.594Z,25.00
2018-07-20T07:37:13.232Z,25.30
2018-07-20T07:39:40.844Z,25.50
2018-07-20T07:42:08.502Z,25.60
2018-07-20T07:44:36.197Z,25.50
2018-07-20T07:47:03.878Z,25.50
2018-07-20T07:49:32.057Z,25.60
2018-07-20T07:52:00.458Z,25.70
2018-07-20T07:54:28.696Z,26.00
2018-07-20T07:56:56.293Z,26.10
2018-07-20T07:59:23.872Z,26.20
2018-07-20T08:04:18.997Z,26.80
2018-07-20T08:06:46.654Z,26.90
2018-07-20T08:09:14.513Z,27.10
2018-07-20T08:11:42.711Z,27.30
2018-07-20T08:16:39.540Z,27.30
2018-07-20T08:19:07.223Z,27.50
2018-07-20T08:21:35.557Z,27.90
2018-07-20T08:24:03.241Z,28.30
2018-07-20T08:26:30.852Z,28.40
2018-07-20T08:28:58.494Z,28.70
2018-07-20T08:31:27.160Z,28.90
2018-07-20T08:33:54.787Z,29.30
2018-07-20T08:36:22.768Z,29.30
2018-07-20T08:38:51.147Z,29.30
2018-07-20T08:41:19.254Z,29.20
2018-07-20T08:43:46.851Z,29.40
2018-07-20T08:46:14.433Z,29.70
2018-07-20T08:48:42.067Z,30.00
2018-07-20T08:51:09.662Z,29.90
2018-07-20T08:53:37.293Z,30.00
2018-07-20T08:56:05.151Z,29.80
2018-07-20T08:58:32.773Z,29.70
2018-07-20T09:01:00.374Z,29.50
2018-07-20T09:03:27.995Z,29.60
2018-07-20T09:05:56.709Z,29.80
2018-07-20T09:08:24.302Z,29.60
2018-07-20T09:10:51.952Z,29.50
2018-07-20T09:13:19.606Z,29.60
2018-07-20T09:15:47.770Z,29.70
2018-07-20T09:18:15.389Z,29.80
2018-07-20T09:20:43.102Z,29.90
2018-07-20T09:23:10.677Z,29.90
2018-07-20T09:25:38.274Z,29.70
2018-07-20T09:28:06.566Z,29.40
2018-07-20T09:30:34.840Z,29.50
2018-07-20T09:33:02.443Z,29.60
2018-07-20T09:35:31.080Z,29.70
2018-07-20T09:37:59.772Z,30.00
2018-07-20T09:40:27.422Z,29.60
2018-07-20T09:42:55.082Z,29.50
2018-07-20T09:45:22.760Z,29.50
2018-07-20T09:47:50.352Z,29.60
2018-07-20T09:50:18.054Z,29.70
2018-07-20T09:52:45.649Z,29.70
2018-07-20T09:55:13.267Z,29.70
2018-07-20T09:57:40.868Z,29.70
2018-07-20T10:00:08.500Z,29.80
2018-07-20T10:02:36.124Z,30.00
2018-07-20T10:05:04.033Z,30.00
2018-07-20T10:07:31.536Z,30.00
2018-07-20T10:09:59.168Z,30.20
2018-07-20T10:12:26.812Z,30.40
2018-07-20T10:14:54.408Z,30.30
2018-07-20T10:17:22.078Z,30.60
2018-07-20T10:19:49.701Z,30.80
2018-07-20T10:22:17.346Z,31.00
2018-07-20T10:24:45.001Z,31.00
2018-07-20T10:27:12.625Z,30.60
2018-07-20T10:29:40.249Z,30.60
2018-07-20T10:32:08.461Z,30.70
2018-07-20T10:34:36.100Z,30.70
2018-07-20T10:37:03.710Z,30.70
2018-07-20T10:39:31.960Z,31.00
2018-07-20T10:42:00.201Z,31.10
2018-07-20T10:44:28.628Z,31.10
2018-07-20T10:46:56.284Z,31.00
2018-07-20T10:49:23.815Z,30.70
2018-07-20T10:51:51.385Z,30.70
2018-07-20T10:54:18.953Z,31.10
2018-07-20T10:56:46.549Z,31.50
2018-07-20T10:59:14.105Z,31.60
2018-07-20T11:01:41.727Z,31.80
2018-07-20T11:04:09.328Z,31.90
2018-07-20T11:06:36.909Z,31.90
2018-07-20T11:09:06.676Z,32.00
2018-07-20T11:11:34.360Z,32.20
2018-07-20T11:14:01.929Z,32.10
2018-07-20T11:16:29.623Z,32.20
2018-07-20T11:18:57.202Z,32.40
2018-07-20T11:21:24.823Z,32.60
2018-07-20T11:23:52.541Z,32.60
2018-07-20T11:26:20.138Z,32.30
2018-07-20T11:28:47.723Z,32.20
2018-07-20T11:31:15.928Z,32.30
2018-07-20T11:33:43.473Z,32.20
2018-07-20T11:36:11.054Z,32.20
2018-07-20T11:38:38.661Z,32.60
2018-07-20T11:41:06.250Z,32.70
2018-07-20T11:43:33.856Z,32.80
2018-07-20T11:46:02.776Z,33.00
2018-07-20T11:48:30.357Z,32.90
2018-07-20T11:50:57.926Z,32.90
2018-07-20T11:53:26.328Z,33.10
2018-07-20T11:55:54.601Z,33.20
2018-07-20T11:58:22.480Z,33.10
2018-07-20T12:00:50.058Z,33.20
2018-07-20T12:03:17.649Z,33.30
2018-07-20T12:05:45.617Z,33.60
2018-07-20T12:08:14.142Z,33.90
2018-07-20T12:10:41.732Z,34.30
2018-07-20T12:13:09.350Z,34.70
2018-07-20T12:15:36.976Z,34.90
2018-07-20T12:18:04.537Z,35.00
2018-07-20T12:20:32.156Z,34.90
2018-07-20T12:22:59.738Z,34.70
2018-07-20T12:25:27.316Z,34.10
2018-07-20T12:27:54.881Z,33.70
2018-07-20T12:30:24.462Z,34.00
2018-07-20T12:32:53.045Z,34.50
2018-07-20T12:35:20.645Z,34.70
2018-07-20T12:37:48.201Z,34.50
2018-07-20T12:40:15.802Z,34.00
2018-07-20T12:42:43.405Z,33.60
2018-07-20T12:45:10.977Z,33.80
2018-07-20T12:47:38.577Z,33.70
2018-07-20T12:50:06.203Z,33.60
2018-07-20T12:52:33.760Z,33.50
2018-07-20T12:55:01.341Z,34.30
2018-07-20T12:57:29.266Z,35.90
2018-07-20T12:59:57.371Z,37.60
2018-07-20T13:02:24.984Z,38.40
2018-07-20T13:04:52.590Z,38.30
2018-07-20T13:07:20.884Z,39.30
2018-07-20T13:09:48.455Z,40.30
2018-07-20T13:12:16.103Z,40.70
2018-07-20T13:14:43.753Z,41.10
2018-07-20T13:17:11.800Z,39.80
2018-07-20T13:19:39.402Z,39.10
2018-07-20T13:22:07.769Z,38.20
2018-07-20T13:24:35.351Z,37.70
2018-07-20T13:27:02.985Z,37.50
2018-07-20T13:29:30.581Z,36.80
2018-07-20T13:34:26.281Z,35.60
2018-07-20T13:36:53.901Z,35.00
2018-07-20T13:39:21.527Z,34.30
2018-07-20T13:41:49.876Z,33.90
2018-07-20T13:44:17.480Z,33.70
2018-07-20T13:46:45.062Z,33.50
2018-07-20T13:49:12.668Z,33.40
2018-07-20T13:51:40.252Z,33.30
2018-07-20T13:54:08.189Z,33.00
2018-07-20T13:56:36.806Z,32.90
2018-07-20T13:59:04.654Z,32.50
2018-07-20T14:01:32.320Z,32.50
2018-07-20T14:04:00.082Z,32.70
2018-07-20T14:06:28.837Z,32.90
2018-07-20T14:08:57.288Z,33.20
2018-07-20T14:11:25.060Z,33.80
2018-07-20T14:13:52.677Z,34.50
2018-07-20T14:16:20.295Z,35.20
2018-07-20T14:18:47.901Z,35.80
2018-07-20T14:21:15.492Z,35.70
2018-07-20T14:26:11.153Z,35.40
2018-07-20T14:28:38.729Z,34.80
2018-07-20T14:31:06.450Z,34.10
2018-07-20T14:33:34.021Z,33.30
2018-07-20T14:36:01.599Z,32.80
2018-07-20T14:38:29.221Z,32.40
2018-07-20T14:40:56.805Z,32.20
2018-07-20T14:43:24.741Z,32.00
2018-07-20T14:45:52.565Z,31.80
2018-07-20T14:48:20.116Z,31.50
2018-07-20T14:50:47.825Z,31.10
2018-07-20T14:53:15.373Z,30.80
2018-07-20T14:55:43.077Z,30.50
2018-07-20T14:58:10.626Z,30.20
2018-07-20T15:00:38.592Z,29.90
2018-07-20T15:03:06.179Z,29.80
2018-07-20T15:05:33.765Z,29.90
2018-07-20T15:08:01.457Z,30.00
2018-07-20T15:10:29.089Z,30.00
2018-07-20T15:12:56.680Z,30.10
2018-07-20T15:15:24.275Z,30.10
2018-07-20T15:17:51.932Z,30.10
2018-07-20T15:20:19.517Z,30.20
2018-07-20T15:22:48.725Z,30.40
2018-07-20T15:25:16.928Z,31.40
2018-07-20T15:27:44.521Z,32.90
2018-07-20T15:30:12.117Z,34.40
2018-07-20T15:32:40.715Z,35.30
2018-07-20T15:35:08.294Z,35.90
2018-07-20T15:37:35.917Z,36.50
2018-07-20T15:40:03.611Z,37.10
2018-07-20T15:42:31.240Z,37.40
2018-07-20T15:44:58.817Z,37.50
2018-07-20T15:47:26.521Z,37.60
2018-07-20T15:49:54.021Z,37.70
2018-07-20T15:54:50.326Z,37.20
2018-07-20T15:57:17.926Z,37.20
2018-07-20T15:59:45.579Z,37.30
2018-07-20T16:02:13.118Z,37.40
2018-07-20T16:04:40.933Z,37.60
2018-07-20T16:07:08.816Z,38.10
2018-07-20T16:09:36.385Z,38.30
2018-07-20T16:12:04.031Z,38.60
2018-07-20T16:14:32.609Z,38.60
2018-07-20T16:17:00.208Z,38.70
2018-07-20T16:19:27.814Z,38.80
2018-07-20T16:21:55.394Z,39.30
2018-07-20T16:24:22.973Z,39.40
2018-07-20T16:26:51.625Z,39.10
2018-07-20T16:29:19.200Z,38.70
2018-07-20T16:31:46.821Z,38.20
2018-07-20T16:34:14.417Z,38.00
2018-07-20T16:36:42.016Z,38.20
2018-07-20T16:39:10.279Z,38.40
2018-07-20T16:41:37.877Z,38.30
2018-07-20T16:44:05.484Z,38.30
2018-07-20T16:46:33.156Z,38.10
2018-07-20T16:49:00.762Z,37.80
2018-07-20T16:51:28.353Z,37.40
2018-07-20T16:53:55.944Z,37.40
2018-07-20T16:56:23.513Z,36.60
2018-07-20T16:58:51.101Z,36.60
2018-07-20T17:01:19.732Z,36.50
2018-07-20T17:03:47.308Z,36.50
2018-07-20T17:06:15.549Z,36.40
2018-07-20T17:08:43.225Z,36.10
2018-07-20T17:11:10.771Z,35.80
2018-07-20T17:13:38.325Z,35.60
2018-07-20T17:16:06.577Z,35.10
2018-07-20T17:18:34.196Z,34.60
2018-07-20T17:21:01.797Z,34.20
2018-07-20T17:23:29.385Z,33.60
2018-07-20T17:25:57.009Z,32.90
2018-07-20T17:28:24.597Z,32.40
2018-07-20T17:30:52.206Z,31.80
2018-07-20T17:33:19.799Z,31.40
2018-07-20T17:35:47.374Z,30.90
2018-07-20T17:38:14.931Z,30.50
2018-07-20T17:40:43.525Z,30.30
2018-07-20T17:43:11.120Z,30.00
2018-07-20T17:45:38.726Z,29.90
2018-07-20T17:48:06.974Z,29.60
2018-07-20T17:50:41.394Z,29.40
2018-07-20T17:53:09.289Z,29.10
2018-07-20T17:55:36.920Z,29.00
2018-07-20T17:58:04.506Z,28.80
2018-07-20T18:00:32.120Z,28.90
2018-07-20T18:03:00.317Z,28.80
2018-07-20T18:05:28.937Z,28.60
2018-07-20T18:07:56.621Z,28.50
2018-07-20T18:10:25.539Z,28.40
2018-07-20T18:12:53.436Z,28.30
2018-07-20T18:15:21.047Z,28.30
2018-07-20T18:17:48.703Z,28.10
2018-07-20T18:20:16.380Z,28.00
2018-07-20T18:22:44.441Z,27.80
2018-07-20T18:25:12.737Z,27.80
2018-07-20T18:27:40.293Z,27.70
2018-07-20T18:30:08.598Z,27.50
2018-07-20T18:32:36.208Z,27.40
2018-07-20T18:35:03.964Z,27.30
2018-07-20T18:37:31.813Z,27.20
2018-07-20T18:40:00.053Z,27.10
2018-07-20T18:42:27.656Z,27.00
2018-07-20T18:44:55.235Z,26.90
2018-07-20T18:47:23.417Z,26.70
2018-07-20T18:49:51.728Z,26.70
2018-07-20T18:52:19.667Z,26.50
2018-07-20T18:54:47.275Z,26.40
2018-07-20T18:57:14.832Z,26.40
2018-07-20T18:59:42.505Z,26.30
2018-07-20T19:02:10.730Z,26.30
2018-07-20T19:04:38.333Z,26.20
2018-07-20T19:07:05.939Z,26.10
2018-07-20T19:09:33.542Z,25.90
2018-07-20T19:12:01.174Z,25.50
2018-07-20T19:14:29.357Z,25.20
2018-07-20T19:16:56.920Z,24.90
2018-07-20T19:19:24.505Z,24.50
2018-07-20T19:21:52.089Z,24.10
2018-07-20T19:24:19.697Z,23.90
2018-07-20T19:26:47.296Z,24.00
2018-07-20T19:29:14.873Z,24.20
2018-07-20T19:34:10.006Z,24.40
2018-07-20T19:36:37.612Z,24.50
2018-07-20T19:39:07.421Z,24.50
2018-07-20T19:41:35.034Z,24.50
2018-07-20T19:44:02.637Z,24.40
2018-07-20T19:46:30.206Z,24.50
2018-07-20T19:48:57.812Z,24.50
2018-07-20T19:51:25.415Z,24.50
2018-07-20T19:53:52.997Z,24.50
2018-07-20T19:56:20.591Z,24.40
2018-07-20T19:58:48.289Z,24.30
2018-07-20T20:01:16.050Z,24.20
2018-07-20T20:03:43.672Z,24.10
2018-07-20T20:06:11.381Z,24.00
2018-07-20T20:08:38.981Z,23.80
2018-07-20T20:11:06.545Z,23.70
2018-07-20T20:16:01.809Z,23.70
2018-07-20T20:18:29.393Z,23.70
2018-07-20T20:20:56.965Z,23.70
2018-07-20T20:23:24.576Z,23.60
2018-07-20T20:25:52.133Z,23.60
2018-07-20T20:28:20.760Z,23.50
2018-07-20T20:30:48.438Z,23.50
2018-07-20T20:33:16.045Z,23.50
2018-07-20T20:35:43.755Z,23.40
2018-07-20T20:38:11.302Z,23.40
2018-07-20T20:40:38.893Z,23.50
2018-07-20T20:43:06.500Z,23.50
2018-07-20T20:45:34.106Z,23.40
2018-07-20T20:48:01.689Z,23.30
2018-07-20T20:50:30.293Z,23.30
2018-07-20T20:52:57.918Z,23.10
2018-07-20T20:55:26.480Z,23.00
2018-07-20T20:57:54.082Z,22.70
2018-07-20T21:00:21.697Z,22.70
2018-07-20T21:02:49.640Z,22.60
2018-07-20T21:05:17.245Z,22.60
2018-07-20T21:07:44.864Z,22.60
2018-07-20T21:10:13.177Z,22.30
2018-07-20T21:12:40.762Z,22.30
2018-07-20T21:15:08.389Z,22.40
2018-07-20T21:17:37.021Z,22.50
2018-07-20T21:20:04.949Z,22.60
2018-07-20T21:22:32.533Z,22.40
2018-07-20T21:25:01.220Z,22.50
2018-07-20T21:27:28.797Z,22.50
2018-07-20T21:29:56.392Z,22.30
2018-07-20T21:32:23.961Z,22.40
2018-07-20T21:34:51.568Z,22.10
2018-07-20T21:39:46.663Z,21.90
2018-07-20T21:42:14.243Z,21.70
2018-07-20T21:44:42.177Z,21.60
2018-07-20T21:47:10.009Z,21.50
2018-07-20T21:49:37.593Z,21.50
2018-07-20T21:52:05.198Z,21.40
2018-07-20T21:57:00.301Z,21.30
2018-07-20T21:59:27.961Z,21.10
2018-07-20T22:01:55.557Z,21.00
2018-07-20T22:04:24.089Z,20.90
2018-07-20T22:06:51.705Z,20.90
2018-07-20T22:09:19.309Z,20.80
2018-07-20T22:11:46.889Z,20.90
2018-07-20T22:14:14.468Z,20.80
2018-07-20T22:16:42.097Z,20.70
2018-07-20T22:19:09.696Z,20.50
2018-07-20T22:21:37.320Z,20.40
2018-07-20T22:24:06.096Z,20.10
2018-07-20T22:26:33.697Z,19.90
2018-07-20T22:29:01.342Z,19.90
2018-07-20T22:31:28.949Z,19.90
2018-07-20T22:33:56.536Z,19.80
2018-07-20T22:36:24.131Z,19.70
2018-07-20T22:38:51.768Z,19.70
2018-07-20T22:41:19.956Z,19.50
2018-07-20T22:43:48.120Z,19.60
2018-07-20T22:46:15.713Z,19.60
2018-07-20T22:48:44.181Z,19.50
2018-07-20T22:51:11.778Z,19.50
2018-07-20T22:53:39.368Z,19.50
2018-07-20T22:56:06.940Z,19.50
2018-07-20T22:58:34.598Z,19.50
2018-07-20T23:01:02.397Z,19.60
2018-07-20T23:03:30.030Z,19.50
2018-07-20T23:05:57.620Z,19.60
2018-07-20T23:08:25.784Z,19.70
2018-07-20T23:10:53.953Z,19.80
2018-07-20T23:13:21.552Z,19.80
2018-07-20T23:15:49.141Z,19.90
2018-07-20T23:18:16.732Z,19.90
2018-07-20T23:20:44.382Z,19.90
2018-07-20T23:23:11.970Z,19.90
2018-07-20T23:25:39.620Z,19.80
2018-07-20T23:28:07.221Z,19.70
2018-07-20T23:30:34.825Z,19.60
2018-07-20T23:33:02.442Z,19.40
2018-07-20T23:35:30.049Z,19.20
2018-07-20T23:37:57.632Z,19.00
2018-07-20T23:40:25.242Z,18.80
2018-07-20T23:42:52.843Z,18.70
2018-07-20T23:45:20.450Z,18.50
2018-07-20T23:47:48.053Z,18.50
2018-07-20T23:50:15.673Z,18.50
2018-07-20T23:52:43.300Z,18.40
2018-07-20T23:55:11.636Z,18.40
2018-07-20T23:57:39.356Z,18.40
